sensor_id;sensor_type;location;lat;lon;timestamp;P1;durP1;ratioP1;P2;durP2;ratioP2
49041;SDS011;34859;51.608;11.462;2024-03-07T12:24:12;17.77;;;11.48;;
49041;SDS011;34859;51.608;11.462;2024-03-07T12:27:11;18.70;;;12.43;;
49041;SDS011;34859;51.608;11.462;2024-03-07T12:29:58;16.48;;;11.63;;
49041;SDS011;34859;51.608;11.462;2024-03-07T12:32:48;15.30;;;11.85;;
49041;SDS011;34859;51.608;11.462;2024-03-07T12:35:35;15.57;;;12.38;;
49041;SDS011;34859;51.608;11.462;2024-03-07T12:38:21;24.42;;;13.63;;
49041;SDS011;34859;51.608;11.462;2024-03-07T12:41:09;21.02;;;13.20;;
49041;SDS011;34859;51.608;11.462;2024-03-07T12:44:01;22.35;;;13.98;;
49041;SDS011;34859;51.608;11.462;2024-03-07T12:46:48;19.70;;;13.48;;
49041;SDS011;34859;51.608;11.462;2024-03-07T12:49:39;15.00;;;12.48;;
49041;SDS011;34859;51.608;11.462;2024-03-07T12:52:25;15.15;;;12.70;;
49041;SDS011;34859;51.608;11.462;2024-03-07T12:55:12;16.70;;;12.95;;
49041;SDS011;34859;51.608;11.462;2024-03-07T12:57:58;18.60;;;12.40;;
49041;SDS011;34859;51.608;11.462;2024-03-07T13:00:44;22.52;;;12.93;;
49041;SDS011;34859;51.608;11.462;2024-03-07T13:03:30;21.15;;;13.35;;
49041;SDS011;34859;51.608;11.462;2024-03-07T13:06:16;17.67;;;12.45;;
49041;SDS011;34859;51.608;11.462;2024-03-07T13:09:10;16.23;;;12.73;;
49041;SDS011;34859;51.608;11.462;2024-03-07T13:11:59;17.08;;;12.82;;
49041;SDS011;34859;51.608;11.462;2024-03-07T13:14:54;14.45;;;11.88;;
49041;SDS011;34859;51.608;11.462;2024-03-07T13:17:40;18.15;;;12.63;;
49041;SDS011;34859;51.608;11.462;2024-03-07T13:20:30;15.15;;;13.02;;
49041;SDS011;34859;51.608;11.462;2024-03-07T13:23:16;16.98;;;12.63;;
49041;SDS011;34859;51.608;11.462;2024-03-07T13:26:03;17.77;;;13.80;;
49041;SDS011;34859;51.608;11.462;2024-03-07T13:28:53;22.38;;;13.82;;
49041;SDS011;34859;51.608;11.462;2024-03-07T13:31:39;15.35;;;12.27;;
49041;SDS011;34859;51.608;11.462;2024-03-07T13:34:29;16.00;;;12.45;;
49041;SDS011;34859;51.608;11.462;2024-03-07T13:37:15;16.13;;;13.18;;
49041;SDS011;34859;51.608;11.462;2024-03-07T13:40:03;17.65;;;13.48;;
49041;SDS011;34859;51.608;11.462;2024-03-07T13:43:08;19.77;;;13.05;;
49041;SDS011;34859;51.608;11.462;2024-03-07T13:45:54;18.55;;;13.10;;
49041;SDS011;34859;51.608;11.462;2024-03-07T13:48:42;17.50;;;12.38;;
49041;SDS011;34859;51.608;11.462;2024-03-07T13:51:29;18.23;;;13.60;;
49041;SDS011;34859;51.608;11.462;2024-03-07T13:54:17;21.42;;;14.63;;
49041;SDS011;34859;51.608;11.462;2024-03-07T14:00:30;21.92;;;14.80;;
49041;SDS011;34859;51.608;11.462;2024-03-07T14:04:27;17.85;;;14.07;;
49041;SDS011;34859;51.608;11.462;2024-03-07T14:07:20;21.75;;;14.35;;
49041;SDS011;34859;51.608;11.462;2024-03-07T14:16:49;23.85;;;14.15;;
49041;SDS011;34859;51.608;11.462;2024-03-07T14:23:09;21.90;;;14.25;;
49041;SDS011;34859;51.608;11.462;2024-03-07T14:32:13;19.08;;;13.63;;
49041;SDS011;34859;51.608;11.462;2024-03-07T14:35:17;18.88;;;13.65;;
49041;SDS011;34859;51.608;11.462;2024-03-07T14:41:15;17.05;;;12.90;;
49041;SDS011;34859;51.608;11.462;2024-03-07T14:44:03;19.70;;;12.70;;
49041;SDS011;34859;51.608;11.462;2024-03-07T14:46:53;27.45;;;13.00;;
49041;SDS011;34859;51.608;11.462;2024-03-07T14:49:51;14.32;;;12.80;;
49041;SDS011;34859;51.608;11.462;2024-03-07T14:52:37;23.38;;;14.30;;
49041;SDS011;34859;51.608;11.462;2024-03-07T14:55:26;15.65;;;12.70;;
49041;SDS011;34859;51.608;11.462;2024-03-07T14:58:13;19.33;;;13.02;;
49041;SDS011;34859;51.608;11.462;2024-03-07T15:00:59;20.17;;;12.65;;
49041;SDS011;34859;51.608;11.462;2024-03-07T15:03:45;15.73;;;12.07;;
49041;SDS011;34859;51.608;11.462;2024-03-07T15:06:31;18.92;;;13.95;;
49041;SDS011;34859;51.608;11.462;2024-03-07T15:09:18;18.25;;;13.15;;
49041;SDS011;34859;51.608;11.462;2024-03-07T15:12:04;16.10;;;13.10;;
49041;SDS011;34859;51.608;11.462;2024-03-07T15:14:52;21.33;;;12.70;;
49041;SDS011;34859;51.608;11.462;2024-03-07T15:17:38;20.83;;;14.50;;
49041;SDS011;34859;51.608;11.462;2024-03-07T15:20:24;19.33;;;13.13;;
49041;SDS011;34859;51.608;11.462;2024-03-07T15:23:11;15.10;;;11.85;;
49041;SDS011;34859;51.608;11.462;2024-03-07T15:25:57;19.80;;;13.02;;
49041;SDS011;34859;51.608;11.462;2024-03-07T15:28:43;15.43;;;12.88;;
49041;SDS011;34859;51.608;11.462;2024-03-07T15:31:30;21.85;;;14.48;;
49041;SDS011;34859;51.608;11.462;2024-03-07T15:34:16;17.92;;;12.95;;
49041;SDS011;34859;51.608;11.462;2024-03-07T15:37:02;17.60;;;13.05;;
49041;SDS011;34859;51.608;11.462;2024-03-07T15:39:48;21.48;;;12.95;;
49041;SDS011;34859;51.608;11.462;2024-03-07T15:42:34;15.15;;;12.55;;
49041;SDS011;34859;51.608;11.462;2024-03-07T15:45:23;15.88;;;12.45;;
49041;SDS011;34859;51.608;11.462;2024-03-07T15:48:10;17.85;;;12.30;;
49041;SDS011;34859;51.608;11.462;2024-03-07T15:50:56;17.30;;;11.32;;
49041;SDS011;34859;51.608;11.462;2024-03-07T15:53:42;14.05;;;11.50;;
49041;SDS011;34859;51.608;11.462;2024-03-07T15:56:28;18.33;;;12.82;;
49041;SDS011;34859;51.608;11.462;2024-03-07T15:59:14;19.38;;;14.00;;
49041;SDS011;34859;51.608;11.462;2024-03-07T16:02:01;16.58;;;12.00;;
49041;SDS011;34859;51.608;11.462;2024-03-07T16:04:47;21.73;;;12.45;;
49041;SDS011;34859;51.608;11.462;2024-03-07T16:07:33;20.73;;;14.02;;
49041;SDS011;34859;51.608;11.462;2024-03-07T16:10:19;21.17;;;12.45;;
49041;SDS011;34859;51.608;11.462;2024-03-07T16:13:10;20.10;;;13.52;;
49041;SDS011;34859;51.608;11.462;2024-03-07T16:15:59;16.95;;;13.30;;
49041;SDS011;34859;51.608;11.462;2024-03-07T16:18:46;19.73;;;12.68;;
49041;SDS011;34859;51.608;11.462;2024-03-07T16:21:32;22.65;;;13.88;;
49041;SDS011;34859;51.608;11.462;2024-03-07T16:24:18;20.05;;;13.73;;
49041;SDS011;34859;51.608;11.462;2024-03-07T16:27:04;20.65;;;15.32;;
49041;SDS011;34859;51.608;11.462;2024-03-07T16:29:50;19.60;;;14.07;;
49041;SDS011;34859;51.608;11.462;2024-03-07T16:32:35;19.80;;;14.10;;
49041;SDS011;34859;51.608;11.462;2024-03-07T16:35:21;17.92;;;13.63;;
49041;SDS011;34859;51.608;11.462;2024-03-07T16:38:07;18.73;;;14.20;;
49041;SDS011;34859;51.608;11.462;2024-03-07T16:40:55;19.63;;;13.48;;
49041;SDS011;34859;51.608;11.462;2024-03-07T16:43:41;18.45;;;13.98;;
49041;SDS011;34859;51.608;11.462;2024-03-07T16:46:27;22.42;;;13.70;;
49041;SDS011;34859;51.608;11.462;2024-03-07T16:49:12;19.65;;;13.98;;
49041;SDS011;34859;51.608;11.462;2024-03-07T16:51:59;25.60;;;13.85;;
49041;SDS011;34859;51.608;11.462;2024-03-07T16:54:45;33.45;;;25.30;;
49041;SDS011;34859;51.608;11.462;2024-03-07T16:57:32;27.52;;;19.95;;
49041;SDS011;34859;51.608;11.462;2024-03-07T17:00:19;21.50;;;16.50;;
49041;SDS011;34859;51.608;11.462;2024-03-07T17:03:12;21.48;;;15.38;;
49041;SDS011;34859;51.608;11.462;2024-03-07T17:06:00;23.58;;;15.25;;
49041;SDS011;34859;51.608;11.462;2024-03-07T17:08:46;23.45;;;16.48;;
49041;SDS011;34859;51.608;11.462;2024-03-07T17:11:33;21.38;;;15.10;;
49041;SDS011;34859;51.608;11.462;2024-03-07T17:14:21;21.63;;;15.68;;
49041;SDS011;34859;51.608;11.462;2024-03-07T17:17:09;19.70;;;14.93;;
49041;SDS011;34859;51.608;11.462;2024-03-07T17:19:58;21.75;;;15.38;;
49041;SDS011;34859;51.608;11.462;2024-03-07T17:22:44;23.00;;;15.85;;
49041;SDS011;34859;51.608;11.462;2024-03-07T17:25:31;26.38;;;16.40;;
49041;SDS011;34859;51.608;11.462;2024-03-07T17:28:17;23.08;;;15.95;;
49041;SDS011;34859;51.608;11.462;2024-03-07T17:31:05;22.60;;;16.05;;
49041;SDS011;34859;51.608;11.462;2024-03-07T17:33:51;28.23;;;17.77;;
49041;SDS011;34859;51.608;11.462;2024-03-07T17:36:37;24.83;;;16.98;;
49041;SDS011;34859;51.608;11.462;2024-03-07T17:39:23;24.00;;;15.70;;
49041;SDS011;34859;51.608;11.462;2024-03-07T17:42:10;22.92;;;17.05;;
49041;SDS011;34859;51.608;11.462;2024-03-07T17:44:58;26.38;;;17.63;;
49041;SDS011;34859;51.608;11.462;2024-03-07T17:47:51;28.25;;;19.17;;
49041;SDS011;34859;51.608;11.462;2024-03-07T17:50:42;28.50;;;18.05;;
49041;SDS011;34859;51.608;11.462;2024-03-07T17:53:29;24.98;;;16.70;;
49041;SDS011;34859;51.608;11.462;2024-03-07T17:56:15;29.05;;;18.60;;
49041;SDS011;34859;51.608;11.462;2024-03-07T17:59:01;32.75;;;19.52;;
49041;SDS011;34859;51.608;11.462;2024-03-07T18:01:47;22.27;;;17.17;;
49041;SDS011;34859;51.608;11.462;2024-03-07T18:04:33;30.77;;;20.88;;
49041;SDS011;34859;51.608;11.462;2024-03-07T18:07:19;29.45;;;19.48;;
49041;SDS011;34859;51.608;11.462;2024-03-07T18:10:08;25.55;;;18.05;;
49041;SDS011;34859;51.608;11.462;2024-03-07T18:13:02;29.58;;;18.58;;
49041;SDS011;34859;51.608;11.462;2024-03-07T18:15:49;27.80;;;17.80;;
49041;SDS011;34859;51.608;11.462;2024-03-07T18:18:35;26.35;;;17.55;;
49041;SDS011;34859;51.608;11.462;2024-03-07T18:21:23;34.30;;;19.65;;
49041;SDS011;34859;51.608;11.462;2024-03-07T18:24:09;28.63;;;19.38;;
49041;SDS011;34859;51.608;11.462;2024-03-07T18:26:55;29.92;;;20.15;;
49041;SDS011;34859;51.608;11.462;2024-03-07T18:29:41;34.70;;;20.02;;
49041;SDS011;34859;51.608;11.462;2024-03-07T18:32:27;33.05;;;21.00;;
49041;SDS011;34859;51.608;11.462;2024-03-07T18:35:13;28.15;;;19.48;;
49041;SDS011;34859;51.608;11.462;2024-03-07T18:38:00;30.90;;;20.52;;
49041;SDS011;34859;51.608;11.462;2024-03-07T18:40:47;33.67;;;21.58;;
49041;SDS011;34859;51.608;11.462;2024-03-07T18:43:34;31.60;;;20.63;;
49041;SDS011;34859;51.608;11.462;2024-03-07T18:46:20;28.38;;;19.85;;
49041;SDS011;34859;51.608;11.462;2024-03-07T18:49:06;30.55;;;19.38;;
49041;SDS011;34859;51.608;11.462;2024-03-07T18:51:58;36.17;;;20.10;;
49041;SDS011;34859;51.608;11.462;2024-03-07T18:54:44;35.13;;;22.00;;
49041;SDS011;34859;51.608;11.462;2024-03-07T18:57:30;39.85;;;23.38;;
49041;SDS011;34859;51.608;11.462;2024-03-07T19:00:17;37.42;;;21.77;;
49041;SDS011;34859;51.608;11.462;2024-03-07T19:03:24;34.53;;;21.83;;
49041;SDS011;34859;51.608;11.462;2024-03-07T19:06:13;36.15;;;21.50;;
49041;SDS011;34859;51.608;11.462;2024-03-07T19:09:02;33.63;;;22.65;;
49041;SDS011;34859;51.608;11.462;2024-03-07T19:11:48;37.88;;;22.58;;
49041;SDS011;34859;51.608;11.462;2024-03-07T19:14:36;37.58;;;22.17;;
49041;SDS011;34859;51.608;11.462;2024-03-07T19:17:22;35.58;;;21.08;;
49041;SDS011;34859;51.608;11.462;2024-03-07T19:20:08;29.75;;;19.75;;
49041;SDS011;34859;51.608;11.462;2024-03-07T19:23:02;33.53;;;21.15;;
49041;SDS011;34859;51.608;11.462;2024-03-07T19:25:48;36.13;;;22.70;;
49041;SDS011;34859;51.608;11.462;2024-03-07T19:28:35;38.25;;;22.67;;
49041;SDS011;34859;51.608;11.462;2024-03-07T19:31:23;33.00;;;21.95;;
49041;SDS011;34859;51.608;11.462;2024-03-07T19:34:09;33.22;;;20.55;;
49041;SDS011;34859;51.608;11.462;2024-03-07T19:36:56;33.35;;;20.92;;
49041;SDS011;34859;51.608;11.462;2024-03-07T19:39:42;37.03;;;22.27;;
49041;SDS011;34859;51.608;11.462;2024-03-07T19:42:29;32.33;;;21.85;;
49041;SDS011;34859;51.608;11.462;2024-03-07T19:45:16;32.80;;;21.20;;
49041;SDS011;34859;51.608;11.462;2024-03-07T19:48:03;36.95;;;22.33;;
49041;SDS011;34859;51.608;11.462;2024-03-07T19:50:49;34.92;;;22.38;;
49041;SDS011;34859;51.608;11.462;2024-03-07T19:53:36;32.30;;;21.77;;
49041;SDS011;34859;51.608;11.462;2024-03-07T19:56:23;34.42;;;21.40;;
49041;SDS011;34859;51.608;11.462;2024-03-07T19:59:09;40.47;;;22.17;;
49041;SDS011;34859;51.608;11.462;2024-03-07T20:01:55;43.33;;;26.92;;
49041;SDS011;34859;51.608;11.462;2024-03-07T20:04:42;35.90;;;22.55;;
49041;SDS011;34859;51.608;11.462;2024-03-07T20:07:28;32.22;;;22.20;;
49041;SDS011;34859;51.608;11.462;2024-03-07T20:10:15;50.20;;;30.33;;
49041;SDS011;34859;51.608;11.462;2024-03-07T20:13:01;42.97;;;26.38;;
49041;SDS011;34859;51.608;11.462;2024-03-07T20:15:47;41.50;;;22.95;;
49041;SDS011;34859;51.608;11.462;2024-03-07T20:18:33;41.75;;;21.85;;
49041;SDS011;34859;51.608;11.462;2024-03-07T20:21:22;32.50;;;20.15;;
49041;SDS011;34859;51.608;11.462;2024-03-07T20:24:08;30.27;;;20.60;;
49041;SDS011;34859;51.608;11.462;2024-03-07T20:26:54;34.20;;;22.48;;
49041;SDS011;34859;51.608;11.462;2024-03-07T20:29:41;34.17;;;21.27;;
49041;SDS011;34859;51.608;11.462;2024-03-07T20:32:28;33.33;;;20.90;;
49041;SDS011;34859;51.608;11.462;2024-03-07T20:35:17;34.60;;;21.63;;
49041;SDS011;34859;51.608;11.462;2024-03-07T20:38:05;36.95;;;23.05;;
49041;SDS011;34859;51.608;11.462;2024-03-07T20:40:51;37.05;;;22.17;;
49041;SDS011;34859;51.608;11.462;2024-03-07T20:43:37;34.80;;;21.92;;
49041;SDS011;34859;51.608;11.462;2024-03-07T20:46:23;43.10;;;23.98;;
49041;SDS011;34859;51.608;11.462;2024-03-07T20:49:09;44.60;;;27.48;;
49041;SDS011;34859;51.608;11.462;2024-03-07T20:51:55;53.03;;;32.88;;
49041;SDS011;34859;51.608;11.462;2024-03-07T20:54:41;44.05;;;26.45;;
49041;SDS011;34859;51.608;11.462;2024-03-07T20:57:28;52.58;;;31.10;;
49041;SDS011;34859;51.608;11.462;2024-03-07T21:00:16;41.40;;;25.52;;
49041;SDS011;34859;51.608;11.462;2024-03-07T21:03:02;37.03;;;23.85;;
49041;SDS011;34859;51.608;11.462;2024-03-07T21:05:51;34.00;;;21.45;;
49041;SDS011;34859;51.608;11.462;2024-03-07T21:08:37;34.10;;;21.38;;
49041;SDS011;34859;51.608;11.462;2024-03-07T21:11:23;41.60;;;22.40;;
49041;SDS011;34859;51.608;11.462;2024-03-07T21:14:13;34.90;;;21.55;;
49041;SDS011;34859;51.608;11.462;2024-03-07T21:16:59;32.05;;;20.50;;
49041;SDS011;34859;51.608;11.462;2024-03-07T21:19:44;36.15;;;20.90;;
49041;SDS011;34859;51.608;11.462;2024-03-07T21:22:31;33.38;;;20.55;;
49041;SDS011;34859;51.608;11.462;2024-03-07T21:25:19;40.85;;;22.85;;
49041;SDS011;34859;51.608;11.462;2024-03-07T21:28:05;36.83;;;22.15;;
49041;SDS011;34859;51.608;11.462;2024-03-07T21:30:51;44.55;;;25.05;;
49041;SDS011;34859;51.608;11.462;2024-03-07T21:33:38;43.10;;;26.05;;
49041;SDS011;34859;51.608;11.462;2024-03-07T21:36:24;42.05;;;23.42;;
49041;SDS011;34859;51.608;11.462;2024-03-07T21:39:10;37.38;;;22.40;;
49041;SDS011;34859;51.608;11.462;2024-03-07T21:41:56;38.63;;;22.73;;
49041;SDS011;34859;51.608;11.462;2024-03-07T21:44:42;39.72;;;22.60;;
49041;SDS011;34859;51.608;11.462;2024-03-07T21:47:29;34.15;;;21.45;;
49041;SDS011;34859;51.608;11.462;2024-03-07T21:50:14;32.97;;;20.85;;
49041;SDS011;34859;51.608;11.462;2024-03-07T21:53:01;30.80;;;20.02;;
49041;SDS011;34859;51.608;11.462;2024-03-07T21:55:47;34.35;;;20.90;;
49041;SDS011;34859;51.608;11.462;2024-03-07T21:58:34;34.55;;;20.17;;
49041;SDS011;34859;51.608;11.462;2024-03-07T22:01:20;34.78;;;21.23;;
49041;SDS011;34859;51.608;11.462;2024-03-07T22:04:05;32.58;;;21.52;;
49041;SDS011;34859;51.608;11.462;2024-03-07T22:06:51;39.35;;;23.52;;
49041;SDS011;34859;51.608;11.462;2024-03-07T22:09:43;34.33;;;21.77;;
49041;SDS011;34859;51.608;11.462;2024-03-07T22:12:29;32.60;;;20.88;;
49041;SDS011;34859;51.608;11.462;2024-03-07T22:15:15;34.72;;;20.52;;
49041;SDS011;34859;51.608;11.462;2024-03-07T22:18:06;34.42;;;21.60;;
49041;SDS011;34859;51.608;11.462;2024-03-07T22:20:52;32.67;;;21.00;;
49041;SDS011;34859;51.608;11.462;2024-03-07T22:23:38;33.58;;;21.48;;
49041;SDS011;34859;51.608;11.462;2024-03-07T22:26:24;32.97;;;21.35;;
49041;SDS011;34859;51.608;11.462;2024-03-07T22:29:10;34.40;;;21.17;;
49041;SDS011;34859;51.608;11.462;2024-03-07T22:31:56;36.83;;;20.42;;
49041;SDS011;34859;51.608;11.462;2024-03-07T22:34:42;34.55;;;21.20;;
49041;SDS011;34859;51.608;11.462;2024-03-07T22:37:28;33.28;;;20.45;;
49041;SDS011;34859;51.608;11.462;2024-03-07T22:40:14;32.90;;;20.17;;
49041;SDS011;34859;51.608;11.462;2024-03-07T22:43:00;30.85;;;20.33;;
49041;SDS011;34859;51.608;11.462;2024-03-07T22:45:46;38.45;;;22.65;;
49041;SDS011;34859;51.608;11.462;2024-03-07T22:48:32;32.78;;;21.95;;
49041;SDS011;34859;51.608;11.462;2024-03-07T22:51:19;41.95;;;24.60;;
49041;SDS011;34859;51.608;11.462;2024-03-07T22:54:05;39.80;;;24.55;;
49041;SDS011;34859;51.608;11.462;2024-03-07T22:56:53;41.70;;;24.38;;
49041;SDS011;34859;51.608;11.462;2024-03-07T22:59:38;37.92;;;23.55;;
49041;SDS011;34859;51.608;11.462;2024-03-07T23:02:24;40.47;;;23.27;;
49041;SDS011;34859;51.608;11.462;2024-03-07T23:05:10;36.17;;;21.08;;
49041;SDS011;34859;51.608;11.462;2024-03-07T23:07:58;35.30;;;22.20;;
49041;SDS011;34859;51.608;11.462;2024-03-07T23:10:44;38.13;;;22.85;;
49041;SDS011;34859;51.608;11.462;2024-03-07T23:13:32;35.95;;;22.48;;
49041;SDS011;34859;51.608;11.462;2024-03-07T23:16:18;34.53;;;22.30;;
49041;SDS011;34859;51.608;11.462;2024-03-07T23:19:04;43.85;;;22.33;;
49041;SDS011;34859;51.608;11.462;2024-03-07T23:21:50;36.70;;;22.70;;
49041;SDS011;34859;51.608;11.462;2024-03-07T23:24:36;36.67;;;21.10;;
49041;SDS011;34859;51.608;11.462;2024-03-07T23:27:22;42.10;;;22.63;;
49041;SDS011;34859;51.608;11.462;2024-03-07T23:30:08;34.28;;;20.70;;
49041;SDS011;34859;51.608;11.462;2024-03-07T23:33:01;42.05;;;22.38;;
49041;SDS011;34859;51.608;11.462;2024-03-07T23:35:47;38.78;;;23.40;;
49041;SDS011;34859;51.608;11.462;2024-03-07T23:38:32;42.55;;;25.20;;
49041;SDS011;34859;51.608;11.462;2024-03-07T23:41:21;39.95;;;25.15;;
49041;SDS011;34859;51.608;11.462;2024-03-07T23:44:07;41.83;;;22.92;;
49041;SDS011;34859;51.608;11.462;2024-03-07T23:46:53;37.97;;;22.67;;
49041;SDS011;34859;51.608;11.462;2024-03-07T23:49:39;35.35;;;21.55;;
49041;SDS011;34859;51.608;11.462;2024-03-07T23:52:25;33.67;;;21.35;;
49041;SDS011;34859;51.608;11.462;2024-03-07T23:55:15;35.00;;;22.65;;
49041;SDS011;34859;51.608;11.462;2024-03-07T23:58:01;36.22;;;22.80;;
